Time;durP1;ratioP1;P1;durP2;ratioP2;P2;SDS_P1;SDS_P2;PMS_P1;PMS_P2;Temp;Humidity;BMP_temperature;BMP_pressure;BME280_temperature;BME280_humidity;BME280_pressure;Samples;Min_cycle;Max_cycle;Signal;HPM_P1;HPM_P2
2023/11/30 00:01:00;;;;;;;9.02;4.03;;;-1.70;99.90;;;;;;5026933;28;20805;-57
2023/11/30 00:03:25;;;;;;;10.18;4.47;;;-1.80;99.90;;;;;;5007580;28;20044;-57
2023/11/30 00:05:51;;;;;;;12.43;4.50;;;-1.80;99.90;;;;;;5017753;28;20585;-60
2023/11/30 00:08:16;;;;;;;8.15;3.72;;;-1.80;99.90;;;;;;5007761;28;20034;-58
2023/11/30 00:10:42;;;;;;;8.25;4.35;;;-1.80;99.90;;;;;;5015740;28;20034;-55
2023/11/30 00:13:07;;;;;;;9.32;4.13;;;-1.90;99.90;;;;;;5003123;28;20034;-58
2023/11/30 00:15:33;;;;;;;7.45;4.18;;;-1.90;99.90;;;;;;5016512;28;20037;-60
2023/11/30 00:17:59;;;;;;;9.07;4.72;;;-2.00;99.90;;;;;;4997725;28;20038;-60
2023/11/30 00:20:24;;;;;;;8.88;3.97;;;-2.00;99.90;;;;;;5003959;28;20058;-59
2023/11/30 00:22:50;;;;;;;6.55;3.80;;;-2.00;99.90;;;;;;4997199;28;20092;-57
2023/11/30 00:25:15;;;;;;;11.93;4.25;;;-2.00;99.90;;;;;;5000896;28;20041;-59
2023/11/30 00:27:41;;;;;;;13.68;3.90;;;-2.00;99.90;;;;;;4990118;28;20026;-59
2023/11/30 00:30:07;;;;;;;7.20;3.83;;;-2.00;99.90;;;;;;5006455;28;20760;-58
2023/11/30 00:32:33;;;;;;;11.52;4.60;;;-2.00;99.90;;;;;;4989734;28;20112;-57
2023/11/30 00:34:58;;;;;;;9.98;3.92;;;-2.00;99.90;;;;;;5000061;28;20690;-53
2023/11/30 00:37:24;;;;;;;5.82;3.65;;;-2.00;99.90;;;;;;4997877;28;20130;-56
2023/11/30 00:39:49;;;;;;;8.88;3.83;;;-1.90;99.90;;;;;;4992070;28;20464;-59
2023/11/30 00:42:15;;;;;;;8.80;4.07;;;-2.00;99.90;;;;;;4996948;28;20035;-59
2023/11/30 00:44:40;;;;;;;7.03;3.45;;;-2.00;99.90;;;;;;4995050;28;20034;-56
2023/11/30 00:47:06;;;;;;;7.40;3.58;;;-1.90;99.90;;;;;;4991438;28;20049;-55
2023/11/30 00:49:31;;;;;;;9.63;3.45;;;-1.90;99.90;;;;;;5000383;28;20065;-58
2023/11/30 00:51:57;;;;;;;6.13;3.10;;;-1.90;99.90;;;;;;4997163;28;20066;-59
2023/11/30 00:54:22;;;;;;;8.40;4.55;;;-1.90;99.90;;;;;;4998183;28;20045;-59
2023/11/30 00:56:48;;;;;;;7.07;2.95;;;-1.80;99.90;;;;;;4994766;28;20450;-53
2023/11/30 00:59:13;;;;;;;5.05;3.35;;;-1.80;99.90;;;;;;4994281;28;20588;-60
2023/11/30 01:01:39;;;;;;;9.70;3.72;;;-1.80;99.90;;;;;;4997217;28;20687;-56
2023/11/30 01:04:04;;;;;;;11.52;3.33;;;-1.80;99.90;;;;;;4993481;28;20618;-58
2023/11/30 01:06:30;;;;;;;9.85;3.70;;;-1.80;99.90;;;;;;5003605;28;20057;-60
2023/11/30 01:08:55;;;;;;;7.30;3.80;;;-1.80;99.90;;;;;;4992285;28;20030;-57
2023/11/30 01:11:21;;;;;;;7.85;3.53;;;-1.80;99.90;;;;;;5001404;28;20046;-55
2023/11/30 01:13:47;;;;;;;7.88;3.35;;;-1.80;99.90;;;;;;4987111;28;20064;-57
2023/11/30 01:16:12;;;;;;;6.78;3.58;;;-1.80;99.90;;;;;;5000983;28;20041;-56
2023/11/30 01:18:38;;;;;;;6.18;3.35;;;-1.70;99.90;;;;;;4990207;28;20038;-57
2023/11/30 01:21:04;;;;;;;6.55;3.45;;;-1.70;99.90;;;;;;4999173;28;20038;-53
2023/11/30 01:23:29;;;;;;;5.65;3.47;;;-1.80;99.90;;;;;;4990239;28;20768;-58
2023/11/30 01:25:55;;;;;;;4.95;3.20;;;-1.80;99.90;;;;;;5005375;28;20050;-59
2023/11/30 01:28:20;;;;;;;4.80;3.10;;;-1.80;99.90;;;;;;4990928;28;20145;-57
2023/11/30 01:30:46;;;;;;;9.77;3.83;;;-1.80;99.90;;;;;;4993941;28;20088;-59
2023/11/30 01:33:12;;;;;;;5.25;2.95;;;-1.80;99.90;;;;;;4991992;28;20048;-56
2023/11/30 01:35:37;;;;;;;7.38;3.38;;;-1.80;99.90;;;;;;4999060;28;20029;-53
2023/11/30 01:38:03;;;;;;;5.63;3.17;;;-1.80;99.90;;;;;;4997747;28;20034;-59
2023/11/30 01:40:28;;;;;;;7.15;3.30;;;-1.80;99.90;;;;;;4999644;28;20123;-60
2023/11/30 01:42:54;;;;;;;4.72;2.97;;;-1.80;99.90;;;;;;4993764;28;20046;-60
2023/11/30 01:45:19;;;;;;;7.15;3.55;;;-1.70;99.90;;;;;;4995401;28;20040;-60
2023/11/30 01:47:45;;;;;;;3.72;2.38;;;-1.70;99.90;;;;;;4993116;28;20038;-60
2023/11/30 01:50:11;;;;;;;5.90;3.00;;;-1.70;99.90;;;;;;5000961;28;20093;-58
2023/11/30 01:52:36;;;;;;;8.88;3.40;;;-1.70;99.90;;;;;;4990361;28;20053;-59
2023/11/30 01:55:03;;;;;;;6.80;3.55;;;-1.70;99.90;;;;;;4995331;28;20040;-59
2023/11/30 01:57:29;;;;;;;5.68;3.20;;;-1.70;99.90;;;;;;4989092;28;20043;-59
2023/11/30 01:59:56;;;;;;;6.93;3.63;;;-1.80;99.90;;;;;;4998226;28;20124;-57
2023/11/30 02:02:22;;;;;;;8.05;3.22;;;-1.80;99.90;;;;;;4991102;28;20046;-60
2023/11/30 02:04:52;;;;;;;8.27;3.17;;;-1.80;99.90;;;;;;4999020;28;20117;-61
2023/11/30 02:07:17;;;;;;;6.50;3.17;;;-1.80;99.90;;;;;;4987755;28;20541;-60
2023/11/30 02:09:43;;;;;;;9.25;4.68;;;-1.80;99.90;;;;;;4997505;28;20042;-56
2023/11/30 02:12:09;;;;;;;9.85;3.63;;;-1.80;99.90;;;;;;4988295;28;20030;-59
2023/11/30 02:14:35;;;;;;;11.25;4.53;;;-1.80;99.90;;;;;;5001584;28;20046;-49
2023/11/30 02:17:02;;;;;;;9.10;4.78;;;-1.80;99.90;;;;;;4994478;28;20109;-52
2023/11/30 02:19:28;;;;;;;8.32;3.55;;;-1.80;99.90;;;;;;4999926;28;20133;-58
2023/11/30 02:21:53;;;;;;;9.38;4.32;;;-1.80;99.90;;;;;;4986750;28;20113;-59
2023/11/30 02:24:19;;;;;;;11.85;4.90;;;-1.90;99.90;;;;;;4994306;28;20041;-60
2023/11/30 02:26:45;;;;;;;12.82;5.00;;;-1.80;99.90;;;;;;4998425;28;20041;-57
2023/11/30 02:29:15;;;;;;;10.15;4.28;;;-1.90;99.90;;;;;;4997784;28;20083;-60
2023/11/30 02:31:41;;;;;;;8.98;4.50;;;-1.90;99.90;;;;;;4996617;28;20421;-59
2023/11/30 02:34:06;;;;;;;6.80;3.60;;;-1.90;99.90;;;;;;4988347;28;20030;-58
2023/11/30 02:36:32;;;;;;;8.25;3.92;;;-1.90;99.90;;;;;;4996464;28;20120;-60
2023/11/30 02:38:57;;;;;;;8.20;3.58;;;-1.90;99.90;;;;;;4999799;28;20029;-60
2023/11/30 02:41:23;;;;;;;8.88;3.88;;;-2.00;99.90;;;;;;5004021;28;20046;-60
2023/11/30 02:43:49;;;;;;;7.43;3.80;;;-2.10;99.90;;;;;;4993047;28;20038;-57
2023/11/30 02:46:14;;;;;;;8.57;4.00;;;-2.10;99.90;;;;;;4993450;28;20073;-60
2023/11/30 02:48:40;;;;;;;9.95;4.13;;;-2.20;99.90;;;;;;4989364;28;20034;-58
2023/11/30 02:51:05;;;;;;;7.47;3.45;;;-2.30;99.90;;;;;;4998719;28;20033;-57
2023/11/30 02:53:31;;;;;;;5.85;3.55;;;-2.30;99.90;;;;;;4988550;28;20038;-54
2023/11/30 02:55:59;;;;;;;12.88;3.75;;;-2.40;99.90;;;;;;4998982;28;20034;-60
2023/11/30 02:58:25;;;;;;;8.10;3.88;;;-2.40;99.90;;;;;;4989588;28;20045;-58
2023/11/30 03:00:51;;;;;;;6.97;3.15;;;-2.40;99.90;;;;;;5000694;28;20568;-56
2023/11/30 03:03:16;;;;;;;4.95;3.10;;;-2.40;99.90;;;;;;4992801;28;20516;-60
2023/11/30 03:05:42;;;;;;;6.70;3.38;;;-2.40;99.90;;;;;;4993166;28;20043;-58
2023/11/30 03:08:07;;;;;;;9.90;3.08;;;-2.40;99.90;;;;;;4984721;28;20065;-59
2023/11/30 03:10:33;;;;;;;6.45;2.72;;;-2.40;99.90;;;;;;4998942;28;20050;-59
2023/11/30 03:12:58;;;;;;;3.97;2.65;;;-2.30;99.90;;;;;;4987371;28;20033;-61
2023/11/30 03:15:24;;;;;;;7.68;2.97;;;-2.40;99.90;;;;;;5001597;28;20122;-60
2023/11/30 03:17:50;;;;;;;7.40;3.50;;;-2.50;99.90;;;;;;4996226;28;20120;-59
2023/11/30 03:20:16;;;;;;;12.93;3.40;;;-2.50;99.90;;;;;;4995700;28;20038;-58
2023/11/30 03:22:41;;;;;;;4.88;2.92;;;-2.60;99.90;;;;;;4989975;28;20462;-59
2023/11/30 03:25:07;;;;;;;8.68;3.00;;;-2.60;99.90;;;;;;4995740;28;20038;-57
2023/11/30 03:27:33;;;;;;;7.53;2.75;;;-2.70;99.90;;;;;;4982289;28;20042;-59
2023/11/30 03:29:59;;;;;;;8.88;2.67;;;-2.70;99.90;;;;;;4990885;28;20034;-55
2023/11/30 03:32:24;;;;;;;9.38;3.78;;;-2.80;99.90;;;;;;4992903;28;20129;-50
2023/11/30 03:34:50;;;;;;;4.57;2.75;;;-2.80;99.90;;;;;;5013945;28;20037;-59
2023/11/30 03:37:16;;;;;;;4.45;2.42;;;-2.90;99.90;;;;;;5003330;28;20217;-59
2023/11/30 03:39:41;;;;;;;6.25;2.20;;;-2.90;99.90;;;;;;5007351;28;20048;-57
2023/11/30 03:42:07;;;;;;;5.82;1.40;;;-2.90;99.90;;;;;;5010541;28;20135;-58
2023/11/30 03:44:32;;;;;;;8.05;2.90;;;-2.90;99.90;;;;;;5017287;28;20045;-60
2023/11/30 03:46:59;;;;;;;7.90;2.65;;;-2.90;99.90;;;;;;5008013;28;20438;-61
2023/11/30 03:49:25;;;;;;;8.50;2.80;;;-3.00;99.90;;;;;;5011412;28;20317;-61
2023/11/30 03:51:50;;;;;;;6.65;3.58;;;-3.00;99.90;;;;;;5011931;28;20041;-61
2023/11/30 03:54:16;;;;;;;8.60;3.92;;;-3.00;99.90;;;;;;5015591;28;20053;-58
2023/11/30 03:56:41;;;;;;;6.20;3.03;;;-3.00;99.90;;;;;;5022179;28;20065;-57
2023/11/30 03:59:10;;;;;;;6.63;4.13;;;-3.00;99.90;;;;;;5015526;28;20455;-57
2023/11/30 04:01:35;;;;;;;9.73;3.72;;;-3.00;99.90;;;;;;5019121;28;20069;-60
2023/11/30 04:04:01;;;;;;;7.35;2.65;;;-2.90;99.90;;;;;;5016996;28;20531;-59
2023/11/30 04:06:26;;;;;;;4.47;2.00;;;-3.00;99.90;;;;;;5023434;28;20042;-60
2023/11/30 04:08:52;;;;;;;3.17;1.58;;;-3.00;99.90;;;;;;5014837;28;20033;-58
2023/11/30 04:11:18;;;;;;;3.40;1.98;;;-2.90;99.90;;;;;;5019228;28;20969;-60
2023/11/30 04:13:45;;;;;;;8.90;2.38;;;-2.90;99.90;;;;;;5005718;28;20034;-58
2023/11/30 04:16:13;;;;;;;8.38;2.28;;;-2.90;99.90;;;;;;5026502;28;20041;-60
2023/11/30 04:18:38;;;;;;;4.93;2.28;;;-3.00;99.90;;;;;;5010411;28;20077;-56
2023/11/30 04:21:05;;;;;;;4.78;2.90;;;-3.00;99.90;;;;;;5026858;28;20060;-60
2023/11/30 04:23:31;;;;;;;6.80;3.38;;;-3.00;99.90;;;;;;5006841;28;20754;-60
2023/11/30 04:25:56;;;;;;;4.18;2.20;;;-3.00;99.90;;;;;;5026403;28;20068;-60
2023/11/30 04:28:22;;;;;;;6.50;2.40;;;-3.00;99.90;;;;;;5012700;28;20045;-55
2023/11/30 04:30:47;;;;;;;7.68;2.70;;;-3.00;99.90;;;;;;5024095;28;20042;-57
2023/11/30 04:33:13;;;;;;;8.13;2.35;;;-3.00;99.90;;;;;;5008907;28;20040;-60
2023/11/30 04:35:38;;;;;;;8.25;2.88;;;-3.00;99.90;;;;;;5025723;28;20042;-56
2023/11/30 04:38:04;;;;;;;6.03;2.55;;;-2.90;99.90;;;;;;5016384;28;20051;-58
2023/11/30 04:40:29;;;;;;;5.53;2.95;;;-2.90;99.90;;;;;;5018418;28;20421;-57
2023/11/30 04:42:55;;;;;;;6.53;2.67;;;-2.90;99.90;;;;;;5014141;28;20038;-58
2023/11/30 04:45:20;;;;;;;7.97;2.78;;;-3.00;99.90;;;;;;5022521;28;20533;-60
2023/11/30 04:47:46;;;;;;;4.85;2.83;;;-3.00;99.90;;;;;;5011294;28;20034;-59
2023/11/30 04:50:11;;;;;;;8.52;2.80;;;-3.00;99.90;;;;;;5026067;28;20751;-57
2023/11/30 04:52:37;;;;;;;5.15;2.92;;;-3.00;99.90;;;;;;5018135;28;20049;-60
2023/11/30 04:55:03;;;;;;;6.60;2.03;;;-3.00;99.90;;;;;;5022473;28;20112;-59
2023/11/30 04:57:28;;;;;;;6.13;2.22;;;-3.00;99.90;;;;;;5012798;28;20514;-60
2023/11/30 04:59:54;;;;;;;12.57;2.72;;;-3.00;99.90;;;;;;5018351;28;20056;-59
2023/11/30 05:02:19;;;;;;;7.10;2.78;;;-3.00;99.90;;;;;;5017575;28;20084;-56
2023/11/30 05:04:45;;;;;;;5.15;2.97;;;-3.00;99.90;;;;;;5024993;28;20347;-59
2023/11/30 05:07:10;;;;;;;7.85;3.03;;;-3.00;99.90;;;;;;5017351;28;20046;-60
2023/11/30 05:09:36;;;;;;;5.65;2.85;;;-3.00;99.90;;;;;;5022865;28;20045;-58
2023/11/30 05:12:02;;;;;;;4.35;2.50;;;-2.90;99.90;;;;;;5017912;28;20042;-56
2023/11/30 05:14:27;;;;;;;10.20;3.05;;;-2.90;99.90;;;;;;5015263;28;20064;-60
2023/11/30 05:16:53;;;;;;;5.85;3.05;;;-2.90;99.90;;;;;;5018767;28;20048;-58
2023/11/30 05:19:18;;;;;;;4.57;2.45;;;-2.80;99.90;;;;;;5020252;28;20033;-61
2023/11/30 05:21:44;;;;;;;5.72;2.55;;;-2.70;99.90;;;;;;5014148;28;20046;-57
2023/11/30 05:24:10;;;;;;;5.03;2.50;;;-2.70;99.90;;;;;;5007832;28;20123;-58
2023/11/30 05:26:35;;;;;;;5.28;2.10;;;-2.60;99.90;;;;;;5018761;28;20242;-60
2023/11/30 05:29:01;;;;;;;5.55;2.63;;;-2.60;99.90;;;;;;5014555;28;20091;-57
2023/11/30 05:31:26;;;;;;;5.93;2.88;;;-2.50;99.90;;;;;;5018830;28;20466;-56
2023/11/30 05:33:53;;;;;;;6.10;2.80;;;-2.50;99.90;;;;;;5012241;28;20037;-57
2023/11/30 05:36:18;;;;;;;3.83;2.53;;;-2.50;99.90;;;;;;5025696;28;20076;-60
2023/11/30 05:38:44;;;;;;;5.65;2.22;;;-2.50;99.90;;;;;;5003882;28;20133;-58
2023/11/30 05:41:09;;;;;;;27.88;3.20;;;-2.50;99.90;;;;;;5017908;28;20108;-60
2023/11/30 05:43:35;;;;;;;3.80;2.08;;;-2.40;99.90;;;;;;5006295;28;20049;-61
2023/11/30 05:46:01;;;;;;;3.17;1.70;;;-2.40;99.90;;;;;;5011069;28;20398;-58
2023/11/30 05:48:26;;;;;;;6.90;1.90;;;-2.40;99.90;;;;;;5004776;28;20034;-56
2023/11/30 05:50:52;;;;;;;3.75;2.00;;;-2.30;99.90;;;;;;5017988;28;20053;-56
2023/11/30 05:53:17;;;;;;;6.65;2.25;;;-2.30;99.90;;;;;;5006294;28;20129;-60
2023/11/30 05:55:43;;;;;;;5.57;2.40;;;-2.30;99.90;;;;;;5009068;28;20037;-60
2023/11/30 05:58:08;;;;;;;7.03;2.72;;;-2.20;99.90;;;;;;5005517;28;20552;-56
2023/11/30 06:00:34;;;;;;;4.65;2.42;;;-2.20;99.90;;;;;;5012275;28;20038;-61
2023/11/30 06:02:59;;;;;;;11.13;3.70;;;-2.30;99.90;;;;;;5001014;28;20033;-61
2023/11/30 06:05:25;;;;;;;9.38;2.75;;;-2.30;99.90;;;;;;5020740;28;20067;-54
2023/11/30 06:07:50;;;;;;;7.88;3.20;;;-2.30;99.90;;;;;;5002764;28;20034;-58
2023/11/30 06:10:16;;;;;;;9.02;2.63;;;-2.30;99.90;;;;;;5006597;28;20038;-59
2023/11/30 06:12:41;;;;;;;4.95;2.90;;;-2.30;99.90;;;;;;5006427;28;20042;-53
2023/11/30 06:15:09;;;;;;;5.35;2.83;;;-2.30;99.90;;;;;;5016377;28;20038;-59
2023/11/30 06:17:34;;;;;;;6.30;3.00;;;-2.20;99.90;;;;;;5007334;28;20061;-57
2023/11/30 06:20:00;;;;;;;9.57;2.88;;;-2.20;99.90;;;;;;5016271;28;20049;-61
2023/11/30 06:22:26;;;;;;;4.32;2.40;;;-2.20;99.90;;;;;;5007725;28;20065;-60
2023/11/30 06:24:51;;;;;;;7.88;2.58;;;-2.20;99.90;;;;;;5017390;28;20602;-59
2023/11/30 06:27:17;;;;;;;5.68;3.00;;;-2.20;99.90;;;;;;5008557;28;20522;-59
2023/11/30 06:29:42;;;;;;;4.32;2.80;;;-2.20;99.90;;;;;;5015554;28;20037;-60
2023/11/30 06:32:08;;;;;;;7.78;3.95;;;-2.20;99.90;;;;;;5009328;28;20653;-58
2023/11/30 06:34:35;;;;;;;8.27;3.60;;;-2.10;99.90;;;;;;5018591;28;20087;-57
2023/11/30 06:37:00;;;;;;;7.82;4.13;;;-2.10;99.90;;;;;;5017804;28;20077;-59
2023/11/30 06:39:26;;;;;;;8.07;3.55;;;-2.00;99.90;;;;;;5011387;28;20436;-58
2023/11/30 06:41:53;;;;;;;6.35;3.95;;;-2.00;99.90;;;;;;5019247;28;21956;-56
2023/11/30 06:44:18;;;;;;;8.32;3.90;;;-2.00;99.90;;;;;;5004839;28;20117;-60
2023/11/30 06:46:44;;;;;;;7.18;4.28;;;-2.00;99.90;;;;;;5000735;28;20072;-62
2023/11/30 06:49:10;;;;;;;8.35;4.63;;;-2.00;99.90;;;;;;5003146;28;21282;-61
2023/11/30 06:51:35;;;;;;;8.57;4.55;;;-2.00;99.90;;;;;;5020962;28;20049;-59
2023/11/30 06:54:01;;;;;;;7.78;4.80;;;-2.00;99.90;;;;;;5001393;28;20040;-61
2023/11/30 06:56:26;;;;;;;8.85;5.40;;;-2.00;99.90;;;;;;5011895;28;20051;-61
2023/11/30 06:58:52;;;;;;;9.85;4.97;;;-2.00;99.90;;;;;;5005893;28;20049;-58
2023/11/30 07:01:18;;;;;;;10.00;4.80;;;-1.90;99.90;;;;;;5006071;28;20457;-57
2023/11/30 07:03:44;;;;;;;8.27;3.78;;;-1.90;99.90;;;;;;5008805;28;20037;-60
2023/11/30 07:06:10;;;;;;;8.38;4.10;;;-1.90;99.90;;;;;;5019234;28;20056;-59
2023/11/30 07:08:35;;;;;;;7.10;3.45;;;-1.90;99.90;;;;;;5015991;28;20049;-60
2023/11/30 07:11:01;;;;;;;9.65;3.72;;;-1.90;99.90;;;;;;5018818;28;20072;-59
2023/11/30 07:13:27;;;;;;;5.13;3.10;;;-1.90;99.90;;;;;;5009958;28;20040;-57
2023/11/30 07:15:52;;;;;;;7.72;3.50;;;-1.90;99.90;;;;;;5016775;28;20077;-59
2023/11/30 07:18:18;;;;;;;7.90;4.85;;;-1.80;99.90;;;;;;5008626;28;20042;-60
2023/11/30 07:20:44;;;;;;;6.35;3.28;;;-1.80;99.90;;;;;;5019059;28;20045;-59
2023/11/30 07:23:10;;;;;;;4.68;3.03;;;-1.80;99.90;;;;;;5008668;28;20752;-60
2023/11/30 07:25:37;;;;;;;7.13;3.65;;;-1.80;99.90;;;;;;5010066;28;20056;-53
2023/11/30 07:28:02;;;;;;;4.85;3.25;;;-1.70;99.90;;;;;;5023619;28;20087;-59
2023/11/30 07:30:28;;;;;;;5.60;3.50;;;-1.70;99.90;;;;;;5021453;28;20045;-61
2023/11/30 07:32:54;;;;;;;4.95;2.95;;;-1.60;99.90;;;;;;5017832;28;20806;-60
2023/11/30 07:35:20;;;;;;;10.02;3.95;;;-1.60;99.90;;;;;;5023373;28;20138;-56
2023/11/30 07:37:45;;;;;;;7.20;4.30;;;-1.60;99.90;;;;;;5012460;28;20053;-59
2023/11/30 07:40:11;;;;;;;11.27;4.82;;;-1.60;99.90;;;;;;5020681;28;20040;-60
2023/11/30 07:42:36;;;;;;;10.13;4.60;;;-1.60;99.90;;;;;;5009686;28;20042;-61
2023/11/30 07:45:02;;;;;;;6.20;4.03;;;-1.50;99.90;;;;;;5013891;28;20403;-57
2023/11/30 07:47:28;;;;;;;4.80;3.33;;;-1.50;99.90;;;;;;5014930;28;20049;-59
2023/11/30 07:49:54;;;;;;;9.55;3.80;;;-1.40;99.90;;;;;;5020073;28;20030;-58
2023/11/30 07:52:20;;;;;;;5.68;3.97;;;-1.40;99.90;;;;;;5020475;28;20037;-56
2023/11/30 07:54:46;;;;;;;11.15;6.40;;;-1.30;99.90;;;;;;5015680;28;20417;-61
2023/11/30 07:57:11;;;;;;;13.10;5.82;;;-1.30;99.90;;;;;;5021259;28;20493;-60
2023/11/30 07:59:37;;;;;;;10.07;5.40;;;-1.20;99.90;;;;;;5027570;28;20048;-60
2023/11/30 08:02:04;;;;;;;8.90;4.97;;;-1.20;99.90;;;;;;5009745;28;20038;-56
2023/11/30 08:04:29;;;;;;;9.57;5.60;;;-1.10;99.90;;;;;;5007302;28;20061;-62
2023/11/30 08:06:55;;;;;;;8.18;4.75;;;-1.10;99.90;;;;;;5006564;28;20049;-60
2023/11/30 08:09:21;;;;;;;8.13;4.20;;;-1.00;99.90;;;;;;5003446;28;20045;-59
2023/11/30 08:11:46;;;;;;;6.55;4.00;;;-1.00;99.90;;;;;;5013495;28;20542;-62
2023/11/30 08:14:12;;;;;;;8.45;4.45;;;-1.00;99.90;;;;;;5027487;28;20508;-63
2023/11/30 08:16:38;;;;;;;8.98;5.22;;;-1.00;99.90;;;;;;5014450;28;20046;-61
2023/11/30 08:19:03;;;;;;;10.77;5.85;;;-0.90;99.90;;;;;;5021785;28;20045;-64
2023/11/30 08:21:29;;;;;;;12.93;5.88;;;-0.90;99.90;;;;;;5013579;28;20041;-58
2023/11/30 08:23:54;;;;;;;11.07;5.40;;;-0.80;99.90;;;;;;5016304;28;20730;-61
2023/11/30 08:26:20;;;;;;;10.55;6.10;;;-0.80;99.90;;;;;;5020076;28;20045;-60
2023/11/30 08:28:46;;;;;;;9.73;5.90;;;-0.80;99.90;;;;;;5014477;28;20038;-65
2023/11/30 08:31:12;;;;;;;12.00;5.45;;;-0.70;99.90;;;;;;5020320;28;20111;-62
2023/11/30 08:33:38;;;;;;;10.52;5.88;;;-0.70;99.90;;;;;;5016250;28;20037;-61
2023/11/30 08:36:04;;;;;;;8.93;5.70;;;-0.70;99.90;;;;;;5009255;28;20141;-61
2023/11/30 08:38:36;;;;;;;9.48;5.53;;;-0.60;99.90;;;;;;5016202;28;20716;-62
2023/11/30 08:41:05;;;;;;;12.18;6.65;;;-0.60;99.90;;;;;;5020320;28;20104;-62
2023/11/30 08:43:30;;;;;;;9.18;5.05;;;-0.60;99.90;;;;;;5013957;28;20073;-62
2023/11/30 08:45:56;;;;;;;9.90;5.50;;;-0.50;99.90;;;;;;5014063;28;20092;-62
2023/11/30 08:48:22;;;;;;;11.52;5.32;;;-0.50;99.90;;;;;;5013877;28;20492;-60
2023/11/30 08:50:48;;;;;;;9.18;5.63;;;-0.40;99.90;;;;;;5019955;28;20046;-60
2023/11/30 08:53:14;;;;;;;11.82;6.00;;;-0.30;99.90;;;;;;5012926;28;20052;-59
2023/11/30 08:55:39;;;;;;;8.73;4.53;;;-0.30;99.90;;;;;;5014481;28;20045;-58
2023/11/30 08:58:05;;;;;;;6.50;4.40;;;-0.20;99.90;;;;;;5017217;28;20569;-61
2023/11/30 09:00:31;;;;;;;7.93;5.50;;;-0.20;99.90;;;;;;5022612;28;20048;-59
2023/11/30 09:02:57;;;;;;;7.20;4.88;;;-0.10;99.90;;;;;;5015201;28;20045;-62
2023/11/30 09:05:23;;;;;;;14.88;6.47;;;-0.10;99.90;;;;;;5017251;28;20587;-62
2023/11/30 09:07:53;;;;;;;8.15;5.32;;;0.00;99.90;;;;;;5014849;28;20081;-59
2023/11/30 09:10:21;;;;;;;13.60;4.53;;;0.00;99.90;;;;;;5016141;28;20040;-63
2023/11/30 09:12:47;;;;;;;12.23;4.90;;;0.10;99.90;;;;;;5017751;28;20692;-61
2023/11/30 09:15:13;;;;;;;11.05;5.38;;;0.10;99.90;;;;;;5016626;28;20037;-63
2023/11/30 09:17:39;;;;;;;10.57;6.13;;;0.20;99.90;;;;;;5015594;28;20048;-62
2023/11/30 09:20:08;;;;;;;12.07;6.40;;;0.30;99.90;;;;;;5019577;28;20551;-61
2023/11/30 09:22:37;;;;;;;10.38;6.85;;;0.30;99.90;;;;;;5009497;28;20047;-61
2023/11/30 09:25:03;;;;;;;10.68;6.32;;;0.30;99.90;;;;;;5014304;28;20041;-62
2023/11/30 09:27:28;;;;;;;14.40;6.57;;;0.30;99.90;;;;;;5016328;28;20069;-62
2023/11/30 09:29:54;;;;;;;9.27;5.78;;;0.30;99.90;;;;;;5025461;28;20041;-62
2023/11/30 09:32:22;;;;;;;10.43;5.50;;;0.40;99.90;;;;;;5016267;28;20167;-62
2023/11/30 09:34:48;;;;;;;13.85;6.30;;;0.40;99.90;;;;;;5010467;28;20042;-61
2023/11/30 09:37:13;;;;;;;8.45;5.57;;;0.50;99.90;;;;;;5000602;28;20045;-62
2023/11/30 09:39:40;;;;;;;9.32;6.00;;;0.60;99.90;;;;;;5012197;28;20030;-62
2023/11/30 09:42:06;;;;;;;7.97;5.72;;;0.60;99.90;;;;;;5002139;28;20586;-60
2023/11/30 09:44:33;;;;;;;8.93;5.13;;;0.60;99.90;;;;;;5007382;28;20049;-60
2023/11/30 09:46:59;;;;;;;8.13;4.97;;;0.60;99.90;;;;;;5004527;28;20037;-58
2023/11/30 09:49:25;;;;;;;7.22;4.35;;;0.60;99.90;;;;;;5017044;28;20037;-61
2023/11/30 09:51:51;;;;;;;6.22;3.97;;;0.70;99.90;;;;;;5008914;28;20084;-66
2023/11/30 09:54:19;;;;;;;7.28;4.07;;;0.70;99.90;;;;;;5002277;28;20052;-59
2023/11/30 09:56:45;;;;;;;6.68;4.00;;;0.70;99.90;;;;;;5004654;28;20167;-61
2023/11/30 09:59:11;;;;;;;15.55;9.30;;;0.90;99.90;;;;;;5004549;28;20080;-61
2023/11/30 10:01:39;;;;;;;21.85;12.07;;;1.00;99.90;;;;;;5004514;28;20053;-63
2023/11/30 10:04:13;;;;;;;21.70;12.80;;;1.10;99.90;;;;;;5008620;28;20042;-61
2023/11/30 10:06:38;;;;;;;16.77;10.57;;;1.20;99.90;;;;;;5017742;28;20041;-63
2023/11/30 10:09:04;;;;;;;11.52;7.20;;;1.40;99.90;;;;;;5013540;28;20038;-60
2023/11/30 10:11:30;;;;;;;7.13;5.13;;;1.50;99.90;;;;;;5012346;28;20115;-63
2023/11/30 10:13:56;;;;;;;8.90;4.55;;;1.60;99.90;;;;;;5014292;28;20049;-63
2023/11/30 10:16:21;;;;;;;8.25;4.57;;;1.80;99.90;;;;;;5010230;28;20042;-62
2023/11/30 10:18:47;;;;;;;8.32;4.53;;;2.00;99.90;;;;;;5014355;28;20037;-63
2023/11/30 10:21:13;;;;;;;8.07;4.45;;;2.20;99.90;;;;;;5017873;28;20041;-61
2023/11/30 10:23:38;;;;;;;6.00;3.72;;;2.30;99.90;;;;;;5009369;28;20118;-63
2023/11/30 10:26:05;;;;;;;6.18;3.75;;;2.40;99.90;;;;;;5011293;28;20065;-63
2023/11/30 10:28:31;;;;;;;5.68;3.60;;;2.30;99.90;;;;;;5008403;28;20049;-62
2023/11/30 10:30:59;;;;;;;5.47;3.65;;;2.20;99.90;;;;;;5016998;28;20172;-60
2023/11/30 10:33:26;;;;;;;6.10;4.03;;;2.10;99.90;;;;;;5012979;28;20413;-60
2023/11/30 10:35:53;;;;;;;5.93;4.10;;;1.90;99.90;;;;;;5016028;28;20041;-57
2023/11/30 10:38:32;;;;;;;5.03;3.65;;;1.80;99.90;;;;;;5016170;28;20048;-59
2023/11/30 10:41:07;;;;;;;5.70;3.88;;;1.80;99.90;;;;;;5013932;28;20121;-61
2023/11/30 10:43:35;;;;;;;6.07;3.58;;;1.70;99.90;;;;;;5008367;28;20044;-61
2023/11/30 10:46:07;;;;;;;7.38;3.33;;;1.70;99.90;;;;;;5023526;28;20045;-62
2023/11/30 10:48:36;;;;;;;3.90;3.10;;;1.70;99.90;;;;;;5006788;28;20041;-62
2023/11/30 10:51:04;;;;;;;5.32;4.05;;;1.70;99.90;;;;;;5015864;28;20065;-61
2023/11/30 10:53:51;;;;;;;5.72;3.83;;;1.60;99.90;;;;;;5013982;28;20132;-62
2023/11/30 10:56:17;;;;;;;6.72;3.85;;;1.40;99.90;;;;;;4140832;28;10000954;-62
2023/11/30 10:58:43;;;;;;;6.85;4.43;;;1.40;99.90;;;;;;5019950;28;20045;-63
2023/11/30 11:01:11;;;;;;;5.63;3.58;;;1.40;99.90;;;;;;5023135;28;20532;-62
2023/11/30 11:03:47;;;;;;;4.93;3.42;;;1.40;99.90;;;;;;5019832;28;20095;-62
2023/11/30 11:06:14;;;;;;;7.07;4.40;;;1.40;99.90;;;;;;5023075;28;20632;-60
2023/11/30 11:08:56;;;;;;;5.45;3.70;;;1.50;99.90;;;;;;5021047;28;20041;-63
2023/11/30 11:11:21;;;;;;;5.35;3.67;;;1.50;99.90;;;;;;5023861;28;20037;-63
2023/11/30 11:13:47;;;;;;;6.82;3.60;;;1.60;99.90;;;;;;5020648;28;20135;-64
2023/11/30 11:16:13;;;;;;;5.93;3.80;;;1.60;99.90;;;;;;5023621;28;20171;-61
2023/11/30 11:18:42;;;;;;;5.78;3.75;;;1.70;99.90;;;;;;5023383;28;20091;-62
2023/11/30 11:21:27;;;;;;;8.65;4.38;;;1.70;99.90;;;;;;5024903;28;20548;-62
2023/11/30 11:24:03;;;;;;;6.43;4.47;;;1.70;99.90;;;;;;5017880;28;20038;-61
2023/11/30 11:26:42;;;;;;;5.05;3.20;;;1.80;99.90;;;;;;5023789;28;20397;-60
2023/11/30 11:29:12;;;;;;;4.10;2.80;;;1.90;99.90;;;;;;5021895;28;20559;-61
2023/11/30 11:31:38;;;;;;;8.65;3.58;;;2.00;99.90;;;;;;5023904;28;20049;-59
2023/11/30 11:34:06;;;;;;;4.30;3.28;;;1.90;99.90;;;;;;5018367;28;20676;-62
2023/11/30 11:36:38;;;;;;;5.38;3.45;;;1.80;99.90;;;;;;5029695;28;20045;-62
2023/11/30 11:39:05;;;;;;;7.43;3.67;;;1.90;99.90;;;;;;5034557;28;20040;-62
2023/11/30 11:41:31;;;;;;;6.53;3.20;;;1.90;99.90;;;;;;5034391;28;20033;-63
2023/11/30 11:43:56;;;;;;;5.43;3.58;;;2.00;99.90;;;;;;5031613;28;20378;-62
2023/11/30 11:46:22;;;;;;;6.28;3.70;;;2.10;99.90;;;;;;5025434;28;20046;-62
2023/11/30 11:48:48;;;;;;;5.20;2.88;;;2.20;99.90;;;;;;5018734;28;20107;-62
2023/11/30 11:51:13;;;;;;;4.45;3.20;;;2.30;99.90;;;;;;5029112;28;20094;-62
2023/11/30 11:53:43;;;;;;;6.97;3.78;;;2.20;99.90;;;;;;5019788;28;20096;-62
2023/11/30 11:56:10;;;;;;;5.30;3.47;;;2.30;99.90;;;;;;5027533;28;20048;-62
2023/11/30 11:58:36;;;;;;;6.05;3.25;;;2.40;99.90;;;;;;5030568;28;20043;-62
2023/11/30 12:01:02;;;;;;;5.07;3.17;;;2.40;99.90;;;;;;5032443;28;20053;-62
2023/11/30 12:03:28;;;;;;;5.55;3.13;;;2.40;99.90;;;;;;5033550;28;20143;-63
2023/11/30 12:05:54;;;;;;;4.35;2.92;;;2.30;99.90;;;;;;5029383;28;20069;-63
2023/11/30 12:08:30;;;;;;;6.30;3.78;;;2.30;99.90;;;;;;5029031;28;20040;-62
2023/11/30 12:10:56;;;;;;;5.20;3.50;;;2.30;99.90;;;;;;5026630;28;20353;-61
2023/11/30 12:13:24;;;;;;;6.82;3.83;;;2.20;99.90;;;;;;5031984;28;20432;-61
2023/11/30 12:15:50;;;;;;;9.77;3.90;;;2.20;99.90;;;;;;5037036;28;20037;-63
2023/11/30 12:18:15;;;;;;;4.97;3.60;;;2.20;99.90;;;;;;5031492;28;20110;-61
2023/11/30 12:20:41;;;;;;;9.13;4.32;;;2.20;99.90;;;;;;5037998;28;20056;-62
2023/11/30 12:23:07;;;;;;;6.07;3.83;;;2.20;99.90;;;;;;5038050;28;20057;-62
2023/11/30 12:25:33;;;;;;;9.23;5.05;;;2.20;99.90;;;;;;5031329;28;20480;-62
2023/11/30 12:27:58;;;;;;;7.28;4.38;;;2.20;99.90;;;;;;5025723;28;20045;-62
2023/11/30 12:30:24;;;;;;;7.65;3.97;;;2.10;99.90;;;;;;5028797;28;20100;-63
2023/11/30 12:32:50;;;;;;;6.22;3.60;;;2.10;99.90;;;;;;5032446;28;20118;-62
2023/11/30 12:35:16;;;;;;;4.68;2.83;;;2.00;99.90;;;;;;5032090;28;20594;-61
2023/11/30 12:37:41;;;;;;;5.65;3.25;;;2.00;99.90;;;;;;5032519;28;20542;-60
2023/11/30 12:40:13;;;;;;;3.97;2.70;;;2.00;99.90;;;;;;5033419;28;20087;-57
2023/11/30 12:42:39;;;;;;;5.68;2.88;;;2.00;99.90;;;;;;5028052;28;20041;-62